Flight Track Log - Related Links

Times and Time Zones

All times are in EDT time to prevent confusion due to time zone crossing. See the FDX1347 flight status page for this flight to view local times or setup timezone preferences in your user account.


Time Position Orientation Groundspeed Altitude Reporting Facility
EDT Latitude Longitude Course Direction KTS MPH feet Rate Location/Type
Mon 09:55:03 PM 42.7319 -73.8053 171° South 161 185 1,100  Level Boston Center
Mon 09:55:21 PM 42.7175 -73.8022 171° South 162 186 1,800 2,308 Climbing Boston Center
Mon 09:56:21 PM 42.6856 -73.8553 231° Southwest 222 255 4,100 2,169 Climbing Boston Center
Mon 09:56:44 PM 42.6872 -73.8806 275° West 228 262 4,800 3,108 Climbing Boston Center
Mon 09:57:44 PM 42.6986 -73.9742 279° West 262 302 8,400 3,100 Climbing Boston Center
Mon 09:58:44 PM 42.7117 -74.0733 280° West 262 302 11,000 2,300 Climbing Boston Center
Mon 09:59:44 PM 42.7222 -74.2092 276° West 302 348 13,000 2,300 Climbing Boston Center
Mon 10:00:44 PM 42.6789 -74.3183 242° Southwest 355 409 15,600 2,225 Climbing Boston Center
Mon 10:06:42 PM 42.3650 -75.1940 242° Southwest 448 516 28,500 2,118 Climbing FlightAware ADS-B
Mon 10:07:32 PM 42.3600 -75.3300 267° West 464 534 30,000 1,920 Climbing FlightAware ADS-B
Mon 10:08:22 PM 42.3020 -75.4640 240° Southwest 478 550 31,700 2,329 Climbing FlightAware ADS-B
Mon 10:08:57 PM 42.2560 -75.5380 230° Southwest 464 534 33,300 2,100 Climbing FlightAware ADS-B
Mon 10:09:42 PM 42.2020 -75.6360 233° Southwest 458 527 34,500 1,482 Climbing FlightAware ADS-B
Mon 10:10:22 PM 42.1490 -75.7390 235° Southwest 472 543 35,400 847 Climbing FlightAware ADS-B
Mon 10:11:07 PM 42.0940 -75.8400 234° Southwest 471 542 35,700 212 Climbing FlightAware ADS-B
Mon 10:11:47 PM 42.0510 -75.9210 234° Southwest 471 542 35,700 2,286 Level FlightAware ADS-B
Mon 10:12:31 PM 41.9842 -76.0513 235° Southwest 457 526 38,900 3,040 Climbing FlightAware ADS-B
Mon 10:13:02 PM 41.9460 -76.1224 234° Southwest 454 522 39,500 1,082 Climbing FlightAware ADS-B
Mon 10:13:32 PM 41.9091 -76.1909 234° Southwest 453 521 40,000 492 Climbing FlightAware ADS-B
Mon 10:14:03 PM 41.8719 -76.2596 234° Southwest 458 527 40,000  Level FlightAware ADS-B
Mon 10:14:33 PM 41.8338 -76.3314 235° Southwest 460 529 40,000  Level FlightAware ADS-B
Mon 10:15:04 PM 41.7959 -76.4007 234° Southwest 460 529 40,000  Level FlightAware ADS-B
Mon 10:15:34 PM 41.7579 -76.4725 235° Southwest 462 532 40,000  Level FlightAware ADS-B
Mon 10:16:05 PM 41.7193 -76.5444 234° Southwest 464 534 40,000  Level FlightAware ADS-B
Mon 10:16:39 PM 41.6762 -76.6234 234° Southwest 465 535 40,000  Level FlightAware ADS-B
Mon 10:17:09 PM 41.6378 -76.6933 234° Southwest 465 535 40,000  Level FlightAware ADS-B
Mon 10:17:40 PM 41.5996 -76.7631 234° Southwest 466 536 40,000  Level FlightAware ADS-B
Mon 10:18:10 PM 41.5612 -76.8352 235° Southwest 467 537 40,000  Level FlightAware ADS-B
Mon 10:18:41 PM 41.5214 -76.9072 234° Southwest 467 537 40,000  Level FlightAware ADS-B
Mon 10:19:13 PM 41.4814 -76.9793 233° Southwest 467 537 40,000  Level FlightAware ADS-B
Mon 10:19:45 PM 41.4403 -77.0535 234° Southwest 467 537 40,000  Level FlightAware ADS-B
Mon 10:20:20 PM 41.3954 -77.1347 234° Southwest 467 537 40,000  Level FlightAware ADS-B
Mon 10:20:51 PM 41.3559 -77.2065 234° Southwest 468 539 40,000  Level FlightAware ADS-B
Mon 10:21:23 PM 41.3139 -77.2831 234° Southwest 468 539 40,000  Level FlightAware ADS-B
Mon 10:22:10 PM 41.2545 -77.3893 233° Southwest 468 539 40,000  Level FlightAware ADS-B
Mon 10:22:46 PM 41.2074 -77.4747 234° Southwest 469 540 40,000  Level FlightAware ADS-B
Mon 10:23:18 PM 41.1658 -77.5486 233° Southwest 469 540 40,000  Level FlightAware ADS-B
Mon 10:23:50 PM 41.1244 -77.6226 233° Southwest 469 540 40,000  Level FlightAware ADS-B
Mon 10:24:33 PM 41.0699 -77.7190 233° Southwest 467 537 40,000  Level FlightAware ADS-B
Mon 10:26:02 PM 40.9620 -77.9090 233° Southwest 463 533 40,000  Level FlightAware ADS-B
Mon 10:26:21 PM 40.9296 -77.9688 234° Southwest 467 537 40,000  Level FlightAware ADS-B
Mon 10:27:27 PM 40.8520 -78.1170 235° Southwest 462 532 40,000  Level FlightAware ADS-B
Mon 10:28:12 PM 40.8030 -78.2180 237° Southwest 467 537 40,000  Level FlightAware ADS-B
Mon 10:28:52 PM 40.7580 -78.3080 237° Southwest 467 537 40,000  Level FlightAware ADS-B
Mon 10:29:32 PM 40.7060 -78.4090 236° Southwest 466 536 40,000  Level FlightAware ADS-B
Mon 10:30:17 PM 40.6490 -78.5200 236° Southwest 466 536 40,000  Level FlightAware ADS-B
Mon 10:30:57 PM 40.6020 -78.6180 238° Southwest 463 533 40,000  Level FlightAware ADS-B
Mon 10:31:37 PM 40.5570 -78.7100 237° Southwest 463 533 40,000  Level FlightAware ADS-B
Mon 10:32:22 PM 40.5030 -78.8210 237° Southwest 462 532 40,000  Level FlightAware ADS-B
Mon 10:33:02 PM 40.4590 -78.9110 237° Southwest 462 532 40,000  Level FlightAware ADS-B
Mon 10:33:42 PM 40.4110 -79.0080 237° Southwest 462 532 40,000  Level FlightAware ADS-B
Mon 10:34:27 PM 40.3590 -79.1130 237° Southwest 463 533 40,000  Level FlightAware ADS-B
Mon 10:35:07 PM 40.3120 -79.2080 237° Southwest 464 534 40,000  Level FlightAware ADS-B
Mon 10:35:52 PM 40.2590 -79.3140 237° Southwest 464 534 40,000  Level FlightAware ADS-B
Mon 10:36:32 PM 40.2120 -79.4100 237° Southwest 464 534 40,000  Level FlightAware ADS-B
Mon 10:37:17 PM 40.1600 -79.5140 237° Southwest 464 534 40,000  Level FlightAware ADS-B
Mon 10:37:57 PM 40.1130 -79.6070 237° Southwest 464 534 40,000  Level FlightAware ADS-B
Mon 10:38:37 PM 40.0660 -79.7010 237° Southwest 465 535 40,000  Level FlightAware ADS-B
Mon 10:40:57 PM 39.9140 -79.9970 236° Southwest 465 535 40,000  Level FlightAware ADS-B
Mon 10:41:57 PM 39.8330 -80.1590 237° Southwest 467 537 40,000  Level FlightAware ADS-B
Mon 10:42:37 PM 39.7860 -80.2510 236° Southwest 468 539 40,000  Level FlightAware ADS-B
Mon 10:43:17 PM 39.7330 -80.3540 236° Southwest 467 537 40,000  Level FlightAware ADS-B
Mon 10:44:12 PM 39.6650 -80.4870 236° Southwest 467 537 40,000  Level FlightAware ADS-B
Mon 10:44:57 PM 39.6110 -80.5920 236° Southwest 467 537 40,000  Level FlightAware ADS-B
Mon 10:45:37 PM 39.5630 -80.6850 236° Southwest 468 539 40,000  Level FlightAware ADS-B
Mon 10:46:17 PM 39.5160 -80.7730 235° Southwest 469 540 40,000  Level FlightAware ADS-B
Mon 10:47:02 PM 39.4610 -80.8780 236° Southwest 469 540 40,000  Level FlightAware ADS-B
Mon 10:47:42 PM 39.4120 -80.9730 236° Southwest 468 539 40,000  Level FlightAware ADS-B
Mon 10:48:22 PM 39.3640 -81.0630 235° Southwest 467 537 40,000  Level FlightAware ADS-B
Mon 10:49:07 PM 39.3090 -81.1690 236° Southwest 466 536 40,000  Level FlightAware ADS-B
Mon 10:49:47 PM 39.2590 -81.2630 236° Southwest 465 535 40,000  Level FlightAware ADS-B
Mon 10:50:32 PM 39.2070 -81.3620 236° Southwest 466 536 40,000  Level FlightAware ADS-B
Mon 10:51:17 PM 39.1530 -81.4630 235° Southwest 466 536 40,000  Level FlightAware ADS-B
Mon 10:51:52 PM 39.1120 -81.5380 235° Southwest 465 535 40,000  Level FlightAware ADS-B
Mon 10:52:42 PM 39.0470 -81.6610 236° Southwest 464 534 40,000  Level FlightAware ADS-B
Mon 10:53:22 PM 39.0000 -81.7480 235° Southwest 463 533 40,000  Level FlightAware ADS-B
Mon 10:54:02 PM 38.9490 -81.8430 235° Southwest 465 535 40,000  Level FlightAware ADS-B
Mon 10:54:47 PM 38.8950 -81.9450 236° Southwest 466 536 40,000  Level FlightAware ADS-B
Mon 10:55:32 PM 38.8390 -82.0480 235° Southwest 468 539 40,000  Level FlightAware ADS-B
Mon 10:56:12 PM 38.7870 -82.1410 234° Southwest 469 540 40,000  Level FlightAware ADS-B
Mon 10:56:52 PM 38.7390 -82.2300 235° Southwest 471 542 40,000  Level FlightAware ADS-B
Mon 10:57:37 PM 38.6840 -82.3310 235° Southwest 473 544 40,000  Level FlightAware ADS-B
Mon 10:58:17 PM 38.6330 -82.4230 235° Southwest 474 545 40,000  Level FlightAware ADS-B
Mon 10:58:57 PM 38.5860 -82.5080 235° Southwest 476 548 40,000  Level FlightAware ADS-B
Mon 10:59:37 PM 38.5310 -82.6090 235° Southwest 477 549 40,000  Level FlightAware ADS-B
Mon 11:00:22 PM 38.4770 -82.7060 235° Southwest 480 552 40,000  Level FlightAware ADS-B
Mon 11:00:57 PM 38.4300 -82.7920 235° Southwest 482 555 40,000  Level FlightAware ADS-B
Mon 11:01:39 PM 38.3725 -82.8963 235° Southwest 40,000  Level FlightAware ADS-B
Mon 11:01:47 PM 38.3618 -82.9148 234° Southwest 485 558 40,000  Level FlightAware ADS-B
Mon 11:02:19 PM 38.3207 -82.9872 234° Southwest 487 560 40,000  Level FlightAware ADS-B
Mon 11:03:00 PM 38.2671 -83.0829 235° Southwest 488 562 40,000  Level FlightAware ADS-B
Mon 11:03:42 PM 38.2114 -83.1835 235° Southwest 490 564 40,000  Level FlightAware ADS-B
Mon 11:04:47 PM 38.1410 -83.3060 234° Southwest 489 563 40,000  Level FlightAware ADS-B
Mon 11:05:24 PM 38.0761 -83.4235 235° Southwest 491 565 40,000  Level FlightAware ADS-B
Mon 11:06:03 PM 38.0243 -83.5152 234° Southwest 495 570 40,000  Level FlightAware ADS-B
Mon 11:06:42 PM 37.9750 -83.6000 234° Southwest 495 570 40,000  Level FlightAware ADS-B
Mon 11:07:05 PM 37.9418 -83.6588 234° Southwest 496 571 40,000  Level FlightAware ADS-B
Mon 11:07:37 PM 37.9060 -83.7220 234° Southwest 496 571 40,000  Level FlightAware ADS-B
Mon 11:08:12 PM 37.8550 -83.8120 234° Southwest 497 572 40,000  Level FlightAware ADS-B
Mon 11:09:02 PM 37.7860 -83.9320 234° Southwest 496 571 40,000  Level FlightAware ADS-B
Mon 11:09:42 PM 37.7320 -84.0250 234° Southwest 496 571 40,000  Level FlightAware ADS-B
Mon 11:10:27 PM 37.6710 -84.1310 234° Southwest 497 572 40,000  Level FlightAware ADS-B
Mon 11:11:07 PM 37.6160 -84.2270 234° Southwest 498 573 40,000  Level FlightAware ADS-B
Mon 11:11:17 PM 37.6013 -84.2504 232° Southwest 499 574 40,000  Level FlightAware ADS-B
Mon 11:11:50 PM 37.5554 -84.3301 234° Southwest 498 573 40,000  Level FlightAware ADS-B
Mon 11:12:23 PM 37.5114 -84.4049 233° Southwest 498 573 40,000  Level FlightAware ADS-B
Mon 11:12:54 PM 37.4696 -84.4772 234° Southwest 497 572 40,000  Level FlightAware ADS-B
Mon 11:13:26 PM 37.4252 -84.5539 234° Southwest 496 571 40,000  Level FlightAware ADS-B
Mon 11:13:57 PM 37.3827 -84.6258 233° Southwest 496 571 40,000  Level FlightAware ADS-B
Mon 11:14:29 PM 37.3396 -84.6999 234° Southwest 496 571 40,000  Level FlightAware ADS-B
Mon 11:15:00 PM 37.2974 -84.7715 233° Southwest 495 570 40,000  Level FlightAware ADS-B
Mon 11:15:30 PM 37.2566 -84.8406 233° Southwest 495 570 40,000  Level FlightAware ADS-B
Mon 11:16:00 PM 37.2155 -84.9096 233° Southwest 494 568 40,000  Level FlightAware ADS-B
Mon 11:16:31 PM 37.1741 -84.9785 233° Southwest 493 567 40,000  Level FlightAware ADS-B
Mon 11:17:01 PM 37.1330 -85.0496 234° Southwest 493 567 40,000  Level FlightAware ADS-B
Mon 11:17:32 PM 37.0906 -85.1207 233° Southwest 493 567 40,000  Level FlightAware ADS-B
Mon 11:18:07 PM 37.0450 -85.1960 233° Southwest 493 567 40,000  Level FlightAware ADS-B
Mon 11:18:14 PM 37.0329 -85.2166 234° Southwest 494 568 40,000  Level FlightAware ADS-B
Mon 11:18:47 PM 36.9900 -85.2880 233° Southwest 493 567 40,000  Level FlightAware ADS-B
Mon 11:18:59 PM 36.9714 -85.3194 233° Southwest 493 567 40,000  Level FlightAware ADS-B
Mon 11:19:33 PM 36.9254 -85.3970 233° Southwest 493 567 40,000  Level FlightAware ADS-B
Mon 11:20:15 PM 36.8675 -85.4930 233° Southwest 494 568 40,000  Level FlightAware ADS-B
Mon 11:20:52 PM 36.8210 -85.5680 232° Southwest 495 570 40,000  Level FlightAware ADS-B
Mon 11:21:14 PM 36.7858 -85.6274 234° Southwest 495 570 40,000  Level FlightAware ADS-B
Mon 11:21:44 PM 36.7444 -85.6957 233° Southwest 496 571 40,000  Level FlightAware ADS-B
Mon 11:22:20 PM 36.6952 -85.7778 233° Southwest 496 571 40,000  Level FlightAware ADS-B
Mon 11:22:50 PM 36.6534 -85.8460 233° Southwest 496 571 40,000  Level FlightAware ADS-B
Mon 11:23:22 PM 36.6090 -85.9190 233° Southwest 496 571 40,000  Level FlightAware ADS-B
Mon 11:23:58 PM 36.5596 -85.9985 232° Southwest 497 572 40,000  Level FlightAware ADS-B
Mon 11:25:32 PM 36.4310 -86.2100 233° Southwest 496 571 40,000  Level FlightAware ADS-B
Mon 11:26:17 PM 36.3730 -86.3030 232° Southwest 496 571 40,000  Level FlightAware ADS-B
Mon 11:26:33 PM 36.3436 -86.3520 233° Southwest 494 568 40,000  Level FlightAware ADS-B
Mon 11:27:15 PM 36.2844 -86.4463 232° Southwest 494 568 40,000  Level FlightAware ADS-B
Mon 11:27:46 PM 36.2414 -86.5158 233° Southwest 494 568 40,000  Level FlightAware ADS-B
Mon 11:28:25 PM 36.1882 -86.6009 232° Southwest 493 567 40,000  Level FlightAware ADS-B
Mon 11:28:58 PM 36.1447 -86.6785 235° Southwest 490 564 40,000  Level FlightAware ADS-B
Mon 11:29:48 PM 36.0991 -86.8038 246° West 487 560 40,000  Level FlightAware ADS-B
Mon 11:30:21 PM 36.0723 -86.8877 248° West 477 549 40,000  Level FlightAware ADS-B
Mon 11:30:52 PM 36.0476 -86.9637 248° West 476 548 40,000  Level FlightAware ADS-B
Mon 11:31:23 PM 36.0225 -87.0444 249° West 476 548 40,000  Level FlightAware ADS-B
Mon 11:31:54 PM 35.9974 -87.1227 248° West 475 547 40,000  Level FlightAware ADS-B
Mon 11:32:26 PM 35.9711 -87.2032 248° West 475 547 40,000  Level FlightAware ADS-B
Mon 11:33:00 PM 35.9441 -87.2861 248° West 474 545 40,000  Level FlightAware ADS-B
Mon 11:34:02 PM 35.8950 -87.4390 248° West 473 544 40,000  Level FlightAware ADS-B
Mon 11:34:42 PM 35.8670 -87.5250 248° West 473 544 40,000  Level FlightAware ADS-B
Mon 11:35:22 PM 35.8390 -87.6100 248° West 473 544 40,000  Level FlightAware ADS-B
Mon 11:36:02 PM 35.8110 -87.6950 248° West 473 544 40,000  Level FlightAware ADS-B
Mon 11:36:42 PM 35.7830 -87.7800 248° West 473 544 40,000  Level FlightAware ADS-B
Mon 11:37:32 PM 35.7480 -87.8860 248° West 473 544 40,000  Level FlightAware ADS-B
Mon 11:38:12 PM 35.7200 -87.9710 248° West 473 544 40,000  Level FlightAware ADS-B
Mon 11:38:52 PM 35.6920 -88.0560 248° West 473 544 40,000  Level FlightAware ADS-B
Mon 11:39:32 PM 35.6640 -88.1410 248° West 473 544 40,000  Level FlightAware ADS-B
Mon 11:40:12 PM 35.6370 -88.2260 249° West 473 544 40,000  Level FlightAware ADS-B
Mon 11:40:52 PM 35.6090 -88.3110 248° West 473 544 40,000  Level FlightAware ADS-B
Mon 11:41:42 PM 35.5740 -88.4170 248° West 473 544 40,000  Level FlightAware ADS-B
Mon 11:42:22 PM 35.5460 -88.5020 248° West 473 544 40,000  Level FlightAware ADS-B
Mon 11:43:02 PM 35.5180 -88.5860 248° West 473 544 40,000  Level FlightAware ADS-B
Mon 11:43:42 PM 35.4900 -88.6710 248° West 473 544 40,000 -14,059 Level FlightAware ADS-B
Mon 11:44:44 PM 35.2519 -88.7958 248° West 399 459 16,100 -12,885 Descending Memphis Center
Mon 11:45:44 PM 35.1758 -88.8861 224° Southwest 394 453 13,800 -2,150 Descending Memphis Center
Mon 11:46:44 PM 35.1081 -88.9736 227° Southwest 371 427 11,800 -1,800 Descending Memphis Center
Mon 11:47:44 PM 35.0464 -89.0558 228° Southwest 347 399 10,200 -1,300 Descending Memphis Center
Mon 11:48:44 PM 35.0369 -89.1500 263° West 286 329 9,200 -1,350 Descending Memphis Center
Mon 11:49:44 PM 35.0378 -89.2411 271° West 273 314 7,500 -1,550 Descending Memphis Center
Mon 11:50:44 PM 35.0386 -89.3300 271° West 268 308 6,100 -850 Descending Memphis Center
Mon 11:51:44 PM 35.0433 -89.4211 274° West 260 299 5,800 -900 Descending Memphis Center
Mon 11:52:44 PM 35.0461 -89.5022 272° West 248 285 4,300 -900 Descending Memphis Center
Mon 11:53:44 PM 35.0486 -89.5858 272° West 248 285 4,000 -500 Descending Memphis Center
Mon 11:54:44 PM 35.0514 -89.6697 272° West 248 285 3,300 -500 Descending Memphis Center
Mon 11:55:44 PM 35.0539 -89.7406 272° West 241 277 3,000 -250 Descending Memphis Center
Mon 11:56:44 PM 35.0561 -89.8014 273° West 202 232 2,800 -500 Descending Memphis Center
Mon 11:57:44 PM 35.0583 -89.8547 273° West 175 201 2,000 -756 Descending Memphis Center
Mon 11:58:43 PM 35.0500 -89.9000 257° West 116 133 1,300 -645 Descending Memphis TRACON
Mon 11:59:45 PM 35.0500 -89.9333 270° West 117 135 700 -581 Descending Memphis TRACON
Tue 12:02:00 AM 35.0333 -89.9667 270° West  Level FlightAware Approximate

Login

Don't have an account? Register now (free) for customized features, flight alerts, and more!